Main page
METAR-TAF:

METAR-TAF

Airports :

Svalbard Airport. Longyear

Longyearbyen, Norway

latitude: 78-15N, longitude: 015-28E, elevation: 2 m

Current weather observation

The report was made 9 minutes ago, at 15:50 UTC
Wind 5 kt from the West/Northwest
Temperature 4°C
Humidity 93%
Pressure 1013 hPa
Visibility 10 km or more
Scattered clouds at a height of 600 ft
Broken clouds at a height of 3100 ft

METAR: ENSB 221550Z 29005KT 9999 SCT006 BKN031 04/03 Q1013 RMK WIND 1400FT VRB03KT

Time: 17:59 (15:59 UTC)

Forecast

The report was made 3 hours and 30 minutes ago, at 12:29 UTC
Forecast valid from 22 at 12 UTC to 23 at 12 UTC
Wind 9 kt from the West/Southwest
Visibility 10 km or more
Few clouds at a height of 500 ft
Scattered clouds at a height of 1200 ft
Broken clouds at a height of 2000 ft
Temporary
from 22 at 12 UTC to 23 at 06 UTC
Scattered clouds at a height of 400 ft
Broken clouds at a height of 1200 ft

TAF: ENSB 221229Z 2212/2312 25009KT 9999 FEW005 SCT012 BKN020 TEMPO 2212/2306 SCT004 BKN012

Weather observations and forecasts of more than 4000 airports (METAR and TAF reports).

The available stations are represented by yellow and red dots on the map.

Hover mouse over dot to see the name of the station.

Then click to see weather observations and forecasts.

To change the map : click on the green buttons with a black cross to zoom in, on the green button with a dash to zoom out, or on the green arrows for adjacent maps.


METAR-TAF: